Doyon, North Dakota
Current Conditions -  °F | °C
As of 4:15 PM on Thursday 23 Oct 2014 (Local Time) from KDVL Reporting Station
Clear Clear  
Wind Chill: 66°   Ceiling: Unl
Heat Index: 66°   Visibility: 10mi
Dew Point: 34°   Wind: 7mph
Humidity: 30%   Direction: 220°SW
Pressure: 29.77"   Gusts: NA
Location:  48.0187°N, 98.6029°W
Report Text: KDVL 232115Z AUTO 22006KT 10SM CLR 19/01 A2977 RMK AO1
Loading
Personal Weather Stations






























Interactive Weather Map New forecast layout! Learn more

10-Day Weather Forecast

Advertisements
Track Severe Weather on mobile